createdAt,value
2023-05-08T00:00:10.462Z,643.00
2023-05-08T00:01:10.228Z,650.00
2023-05-08T00:02:10.275Z,644.00
2023-05-08T00:03:10.482Z,650.00
2023-05-08T00:04:10.700Z,656.00
2023-05-08T00:05:10.486Z,653.00
2023-05-08T00:06:10.550Z,656.00
2023-05-08T00:07:10.580Z,661.00
2023-05-08T00:08:10.669Z,660.00
2023-05-08T00:09:10.711Z,659.00
2023-05-08T00:10:11.048Z,665.00
2023-05-08T00:11:10.848Z,666.00
2023-05-08T00:12:10.892Z,668.00
2023-05-08T00:13:11.022Z,673.00
2023-05-08T00:14:11.010Z,676.00
2023-05-08T00:15:11.073Z,668.00
2023-05-08T00:16:11.134Z,694.00
2023-05-08T00:17:11.200Z,693.00
2023-05-08T00:18:11.268Z,673.00
2023-05-08T00:19:11.313Z,687.00
2023-05-08T00:20:11.531Z,677.00
2023-05-08T00:21:11.413Z,680.00
2023-05-08T00:22:11.462Z,666.00
2023-05-08T00:23:11.504Z,685.00
2023-05-08T00:24:11.559Z,680.00
2023-05-08T00:25:11.595Z,685.00
2023-05-08T00:26:11.595Z,695.00
2023-05-08T00:27:11.669Z,679.00
2023-05-08T00:28:11.772Z,709.00
2023-05-08T00:29:11.826Z,698.00
2023-05-08T00:30:12.008Z,700.00
2023-05-08T00:31:11.920Z,700.00
2023-05-08T00:32:11.979Z,710.00
2023-05-08T00:33:12.049Z,717.00
2023-05-08T00:34:12.057Z,706.00
2023-05-08T00:35:12.043Z,705.00
2023-05-08T00:36:12.122Z,711.00
2023-05-08T00:37:12.159Z,703.00
2023-05-08T00:38:12.202Z,716.00
2023-05-08T00:39:12.225Z,714.00
2023-05-08T00:40:12.449Z,705.00
2023-05-08T00:41:12.268Z,723.00
2023-05-08T00:42:12.274Z,724.00
2023-05-08T00:43:12.347Z,710.00
2023-05-08T00:44:12.365Z,725.00
2023-05-08T00:45:12.342Z,720.00
2023-05-08T00:46:12.395Z,731.00
2023-05-08T00:47:12.407Z,725.00
2023-05-08T00:48:12.398Z,719.00
2023-05-08T00:49:12.444Z,702.00
2023-05-08T00:50:12.605Z,714.00
2023-05-08T00:51:12.383Z,700.00
2023-05-08T00:52:12.471Z,714.00
2023-05-08T00:53:12.465Z,713.00
2023-05-08T00:54:12.482Z,701.00
2023-05-08T00:55:12.482Z,709.00
2023-05-08T00:56:12.466Z,697.00
2023-05-08T00:57:12.449Z,713.00
2023-05-08T00:58:12.503Z,718.00
2023-05-08T00:59:12.521Z,727.00
2023-05-08T01:00:12.661Z,714.00
2023-05-08T01:01:12.598Z,726.00
2023-05-08T01:02:12.582Z,734.00
2023-05-08T01:03:12.689Z,728.00
2023-05-08T01:04:12.505Z,745.00
2023-05-08T01:05:12.499Z,747.00
2023-05-08T01:06:12.560Z,734.00
2023-05-08T01:07:12.519Z,732.00
2023-05-08T01:08:12.531Z,719.00
2023-05-08T01:09:12.535Z,732.00
2023-05-08T01:10:12.766Z,734.00
2023-05-08T01:11:12.496Z,742.00
2023-05-08T01:12:12.514Z,753.00
2023-05-08T01:13:12.588Z,756.00
2023-05-08T01:14:12.509Z,743.00
2023-05-08T01:15:12.513Z,748.00
2023-05-08T01:16:12.501Z,757.00
2023-05-08T01:17:12.465Z,758.00
2023-05-08T01:18:12.496Z,765.00
2023-05-08T01:19:12.505Z,768.00
2023-05-08T01:20:12.717Z,757.00
2023-05-08T01:21:12.482Z,759.00
2023-05-08T01:22:12.464Z,767.00
2023-05-08T01:23:12.476Z,760.00
2023-05-08T01:24:12.457Z,792.00
2023-05-08T01:25:12.523Z,793.00
2023-05-08T01:26:12.447Z,783.00
2023-05-08T01:27:12.461Z,799.00
2023-05-08T01:28:12.413Z,798.00
2023-05-08T01:29:12.472Z,797.00
2023-05-08T01:30:12.646Z,805.00
2023-05-08T01:31:12.419Z,813.00
2023-05-08T01:32:12.446Z,795.00
2023-05-08T01:33:12.461Z,808.00
2023-05-08T01:34:12.429Z,797.00
2023-05-08T01:35:12.424Z,807.00
2023-05-08T01:36:12.404Z,790.00
2023-05-08T01:37:12.399Z,791.00
2023-05-08T01:38:12.404Z,771.00
2023-05-08T01:39:12.387Z,761.00
2023-05-08T01:40:12.839Z,773.00
2023-05-08T01:41:12.433Z,782.00
2023-05-08T01:42:12.390Z,762.00
2023-05-08T01:43:12.357Z,785.00
2023-05-08T01:44:12.395Z,776.00
2023-05-08T01:45:12.368Z,788.00
2023-05-08T01:46:12.487Z,789.00
2023-05-08T01:47:12.360Z,793.00
2023-05-08T01:48:12.365Z,778.00
2023-05-08T01:49:12.386Z,779.00
2023-05-08T01:50:12.502Z,782.00
2023-05-08T01:51:12.356Z,772.00
2023-05-08T01:52:12.362Z,784.00
2023-05-08T01:53:12.385Z,774.00
2023-05-08T01:54:12.354Z,801.00
2023-05-08T01:55:12.370Z,779.00
2023-05-08T01:56:12.357Z,779.00
2023-05-08T01:57:12.326Z,778.00
2023-05-08T01:58:12.336Z,785.00
2023-05-08T01:59:12.362Z,796.00
2023-05-08T02:00:12.489Z,789.00
2023-05-08T02:01:12.449Z,785.00
2023-05-08T02:02:12.385Z,783.00
2023-05-08T02:03:12.384Z,803.00
2023-05-08T02:04:12.381Z,803.00
2023-05-08T02:05:12.339Z,793.00
2023-05-08T02:06:12.350Z,809.00
2023-05-08T02:07:12.360Z,801.00
2023-05-08T02:08:12.369Z,794.00
2023-05-08T02:09:12.340Z,787.00
2023-05-08T02:10:12.644Z,789.00
2023-05-08T02:11:12.366Z,805.00
2023-05-08T02:12:12.356Z,814.00
2023-05-08T02:13:12.384Z,818.00
2023-05-08T02:14:12.359Z,808.00
2023-05-08T02:15:12.377Z,810.00
2023-05-08T02:16:12.422Z,819.00
2023-05-08T02:17:12.384Z,816.00
2023-05-08T02:18:12.378Z,825.00
2023-05-08T02:19:12.398Z,825.00
2023-05-08T02:20:12.502Z,839.00
2023-05-08T02:21:12.404Z,845.00
2023-05-08T02:22:12.422Z,842.00
2023-05-08T02:23:12.392Z,826.00
2023-05-08T02:24:12.441Z,814.00
2023-05-08T02:25:12.394Z,811.00
2023-05-08T02:26:12.452Z,829.00
2023-05-08T02:27:12.456Z,821.00
2023-05-08T02:28:12.425Z,821.00
2023-05-08T02:29:12.425Z,813.00
2023-05-08T02:30:12.702Z,831.00
2023-05-08T02:31:12.443Z,822.00
2023-05-08T02:32:12.597Z,846.00
2023-05-08T02:33:12.486Z,851.00
2023-05-08T02:34:12.470Z,832.00
2023-05-08T02:35:12.505Z,840.00
2023-05-08T02:36:12.455Z,829.00
2023-05-08T02:37:12.483Z,826.00
2023-05-08T02:38:12.479Z,832.00
2023-05-08T02:39:12.467Z,833.00
2023-05-08T02:40:12.673Z,838.00
2023-05-08T02:41:12.502Z,835.00
2023-05-08T02:42:12.523Z,838.00
2023-05-08T02:43:12.511Z,839.00
2023-05-08T02:44:12.512Z,831.00
2023-05-08T02:45:12.504Z,833.00
2023-05-08T02:46:12.599Z,840.00
2023-05-08T02:47:12.499Z,850.00
2023-05-08T02:48:12.548Z,848.00
2023-05-08T02:49:12.530Z,853.00
2023-05-08T02:50:12.681Z,857.00
2023-05-08T02:51:12.544Z,855.00
2023-05-08T02:52:12.583Z,849.00
2023-05-08T02:53:12.578Z,832.00
2023-05-08T02:54:12.590Z,840.00
2023-05-08T02:55:12.568Z,840.00
2023-05-08T02:56:12.574Z,848.00
2023-05-08T02:57:12.604Z,849.00
2023-05-08T02:58:12.607Z,826.00
2023-05-08T02:59:12.592Z,837.00
2023-05-08T03:00:12.910Z,843.00
2023-05-08T03:01:12.656Z,838.00
2023-05-08T03:02:12.717Z,825.00
2023-05-08T03:03:12.734Z,831.00
2023-05-08T03:04:12.629Z,849.00
2023-05-08T03:05:12.656Z,841.00
2023-05-08T03:06:12.701Z,847.00
2023-05-08T03:07:12.778Z,850.00
2023-05-08T03:08:12.728Z,863.00
2023-05-08T03:09:12.718Z,859.00
2023-05-08T03:10:12.967Z,861.00
2023-05-08T03:11:12.756Z,858.00
2023-05-08T03:12:12.760Z,844.00
2023-05-08T03:13:12.838Z,840.00
2023-05-08T03:14:12.868Z,842.00
2023-05-08T03:15:12.788Z,853.00
2023-05-08T03:16:12.844Z,856.00
2023-05-08T03:17:12.816Z,850.00
2023-05-08T03:18:12.828Z,858.00
2023-05-08T03:19:12.835Z,844.00
2023-05-08T03:20:13.161Z,842.00
2023-05-08T03:21:12.878Z,862.00
2023-05-08T03:22:12.848Z,854.00
2023-05-08T03:23:12.884Z,837.00
2023-05-08T03:24:12.894Z,855.00
2023-05-08T03:25:12.902Z,834.00
2023-05-08T03:26:12.947Z,842.00
2023-05-08T03:27:12.960Z,853.00
2023-05-08T03:28:12.954Z,846.00
2023-05-08T03:29:13.007Z,854.00
2023-05-08T03:30:13.311Z,865.00
2023-05-08T03:31:13.062Z,841.00
2023-05-08T03:32:13.022Z,851.00
2023-05-08T03:33:13.082Z,848.00
2023-05-08T03:34:13.109Z,857.00
2023-05-08T03:35:13.073Z,859.00
2023-05-08T03:36:13.087Z,847.00
2023-05-08T03:37:13.138Z,855.00
2023-05-08T03:38:13.134Z,855.00
2023-05-08T03:39:13.176Z,856.00
2023-05-08T03:40:13.338Z,850.00
2023-05-08T03:41:13.179Z,873.00
2023-05-08T03:42:13.164Z,852.00
2023-05-08T03:43:13.197Z,854.00
2023-05-08T03:44:13.224Z,868.00
2023-05-08T03:45:13.228Z,865.00
2023-05-08T03:46:13.350Z,864.00
2023-05-08T03:47:13.249Z,868.00
2023-05-08T03:48:13.356Z,861.00
2023-05-08T03:49:13.251Z,868.00
2023-05-08T03:50:13.454Z,874.00
2023-05-08T03:51:13.292Z,879.00
2023-05-08T03:52:13.340Z,876.00
2023-05-08T03:53:13.343Z,878.00
2023-05-08T03:54:13.347Z,882.00
2023-05-08T03:55:13.381Z,877.00
2023-05-08T03:56:13.417Z,856.00
2023-05-08T03:57:13.419Z,874.00
2023-05-08T03:58:13.429Z,880.00
2023-05-08T03:59:13.445Z,895.00
2023-05-08T04:00:14.283Z,897.00
2023-05-08T04:01:13.525Z,896.00
2023-05-08T04:02:13.552Z,914.00
2023-05-08T04:03:13.613Z,902.00
2023-05-08T04:04:13.644Z,836.00
2023-05-08T04:05:13.588Z,789.00
2023-05-08T04:06:13.647Z,754.00
2023-05-08T04:07:13.694Z,728.00
2023-05-08T04:08:13.761Z,665.00
2023-05-08T04:09:13.748Z,631.00
2023-05-08T04:10:14.043Z,613.00
2023-05-08T04:11:13.847Z,583.00
2023-05-08T04:12:13.891Z,570.00
2023-05-08T04:13:13.971Z,546.00
2023-05-08T04:14:14.020Z,538.00
2023-05-08T04:15:14.254Z,527.00
2023-05-08T04:16:14.105Z,525.00
2023-05-08T04:17:14.122Z,524.00
2023-05-08T04:18:14.259Z,518.00
2023-05-08T04:19:14.258Z,512.00
2023-05-08T04:20:14.278Z,513.00
2023-05-08T04:21:14.356Z,502.00
2023-05-08T04:22:14.396Z,502.00
2023-05-08T04:23:14.477Z,501.00
2023-05-08T04:24:14.502Z,507.00
2023-05-08T04:25:14.750Z,500.00
2023-05-08T04:26:16.391Z,508.00
2023-05-08T04:27:14.657Z,502.00
2023-05-08T04:28:14.716Z,500.00
2023-05-08T04:29:14.810Z,503.00
2023-05-08T04:30:14.767Z,507.00
2023-05-08T04:31:14.833Z,508.00
2023-05-08T04:32:14.969Z,505.00
2023-05-08T04:33:14.986Z,522.00
2023-05-08T04:34:15.020Z,530.00
2023-05-08T04:35:15.247Z,549.00
2023-05-08T04:36:15.133Z,554.00
2023-05-08T04:37:15.156Z,564.00
2023-05-08T04:38:15.252Z,573.00
2023-05-08T04:39:15.301Z,578.00
2023-05-08T04:40:15.319Z,578.00
2023-05-08T04:41:15.396Z,587.00
2023-05-08T04:42:15.396Z,592.00
2023-05-08T04:43:15.458Z,602.00
2023-05-08T04:44:15.484Z,610.00
2023-05-08T04:45:15.635Z,611.00
2023-05-08T04:46:15.616Z,616.00
2023-05-08T04:47:15.601Z,628.00
2023-05-08T04:48:15.687Z,629.00
2023-05-08T04:49:15.730Z,636.00
2023-05-08T04:50:15.728Z,644.00
2023-05-08T04:51:15.754Z,647.00
2023-05-08T04:52:15.834Z,645.00
2023-05-08T04:53:15.865Z,641.00
2023-05-08T04:54:15.918Z,640.00
2023-05-08T04:55:15.991Z,642.00
2023-05-08T04:56:15.990Z,645.00
2023-05-08T04:57:16.093Z,649.00
2023-05-08T04:58:16.107Z,650.00
2023-05-08T04:59:16.334Z,652.00
2023-05-08T05:00:16.173Z,653.00
2023-05-08T05:01:16.261Z,656.00
2023-05-08T05:02:16.283Z,654.00
2023-05-08T05:03:16.418Z,656.00
2023-05-08T05:04:16.410Z,660.00
2023-05-08T05:05:16.413Z,662.00
2023-05-08T05:06:16.466Z,662.00
2023-05-08T05:07:16.518Z,665.00
2023-05-08T05:08:16.578Z,660.00
2023-05-08T05:09:16.569Z,669.00
2023-05-08T05:10:16.672Z,661.00
2023-05-08T05:11:16.664Z,659.00
2023-05-08T05:12:16.686Z,656.00
2023-05-08T05:13:16.851Z,667.00
2023-05-08T05:14:16.818Z,665.00
2023-05-08T05:15:16.893Z,676.00
2023-05-08T05:16:16.911Z,677.00
2023-05-08T05:17:16.947Z,675.00
2023-05-08T05:18:17.008Z,679.00
2023-05-08T05:19:17.010Z,678.00
2023-05-08T05:20:17.135Z,680.00
2023-05-08T05:21:17.152Z,689.00
2023-05-08T05:22:17.234Z,693.00
2023-05-08T05:23:17.251Z,693.00
2023-05-08T05:24:17.332Z,695.00
2023-05-08T05:25:17.381Z,711.00
2023-05-08T05:26:17.409Z,720.00
2023-05-08T05:27:19.325Z,715.00
2023-05-08T05:28:17.450Z,733.00
2023-05-08T05:29:17.421Z,731.00
2023-05-08T05:30:17.450Z,747.00
2023-05-08T05:31:17.412Z,739.00
2023-05-08T05:32:17.430Z,737.00
2023-05-08T05:33:17.683Z,746.00
2023-05-08T05:34:17.423Z,755.00
2023-05-08T05:35:17.386Z,760.00
2023-05-08T05:36:17.384Z,784.00
2023-05-08T05:37:17.391Z,759.00
2023-05-08T05:38:17.355Z,629.00
2023-05-08T05:39:17.352Z,596.00
2023-05-08T05:40:17.349Z,568.00
2023-05-08T05:41:17.333Z,581.00
2023-05-08T05:42:17.377Z,587.00
2023-05-08T05:43:17.333Z,608.00
2023-05-08T05:44:17.336Z,616.00
2023-05-08T05:45:17.313Z,626.00
2023-05-08T05:46:17.342Z,635.00
2023-05-08T05:47:17.747Z,660.00
2023-05-08T05:48:17.302Z,708.00
2023-05-08T05:49:17.285Z,767.00
2023-05-08T05:50:17.312Z,812.00
2023-05-08T05:51:17.282Z,844.00
2023-05-08T05:52:17.256Z,867.00
2023-05-08T05:53:17.303Z,916.00
2023-05-08T05:54:17.255Z,960.00
2023-05-08T05:55:17.266Z,982.00
2023-05-08T05:56:17.272Z,1010.00
2023-05-08T05:57:17.721Z,1035.00
2023-05-08T05:58:17.696Z,1022.00
2023-05-08T05:59:17.231Z,1074.00
2023-05-08T06:00:17.193Z,1072.00
2023-05-08T06:01:17.223Z,1099.00
2023-05-08T06:02:17.370Z,1117.00
2023-05-08T06:03:17.319Z,1137.00
2023-05-08T06:04:17.249Z,1155.00
2023-05-08T06:05:17.184Z,1154.00
2023-05-08T06:06:17.175Z,1176.00
2023-05-08T06:07:17.184Z,1180.00
2023-05-08T06:08:17.188Z,1187.00
2023-05-08T06:09:17.139Z,1212.00
2023-05-08T06:10:17.172Z,1221.00
2023-05-08T06:11:17.120Z,1233.00
2023-05-08T06:12:17.130Z,1247.00
2023-05-08T06:13:17.182Z,1248.00
2023-05-08T06:14:17.131Z,1255.00
2023-05-08T06:15:17.123Z,1250.00
2023-05-08T06:16:17.119Z,1248.00
2023-05-08T06:17:17.090Z,1249.00
2023-05-08T06:18:17.062Z,1247.00
2023-05-08T06:19:17.067Z,1247.00
2023-05-08T06:20:17.212Z,1249.00
2023-05-08T06:21:17.054Z,1212.00
2023-05-08T06:22:17.080Z,1219.00
2023-05-08T06:23:17.029Z,1217.00
2023-05-08T06:24:17.050Z,1208.00
2023-05-08T06:25:17.049Z,1189.00
2023-05-08T06:26:17.026Z,1184.00
2023-05-08T06:27:16.997Z,1193.00
2023-05-08T06:28:17.019Z,1190.00
2023-05-08T06:29:17.033Z,1186.00
2023-05-08T06:30:17.006Z,1173.00
2023-05-08T06:31:17.098Z,1151.00
2023-05-08T06:32:17.026Z,1153.00
2023-05-08T06:33:16.992Z,1149.00
2023-05-08T06:34:16.976Z,1150.00
2023-05-08T06:35:17.022Z,1156.00
2023-05-08T06:36:16.966Z,1169.00
2023-05-08T06:37:17.004Z,1147.00
2023-05-08T06:38:16.934Z,1028.00
2023-05-08T06:39:17.189Z,911.00
2023-05-08T06:40:16.908Z,874.00
2023-05-08T06:41:16.919Z,804.00
2023-05-08T06:42:17.052Z,795.00
2023-05-08T06:43:16.913Z,835.00
2023-05-08T06:44:16.920Z,854.00
2023-05-08T06:45:16.999Z,887.00
2023-05-08T06:46:16.910Z,908.00
2023-05-08T06:47:16.898Z,957.00
2023-05-08T06:48:16.910Z,952.00
2023-05-08T06:49:16.883Z,957.00
2023-05-08T06:50:16.885Z,950.00
2023-05-08T06:51:16.884Z,976.00
2023-05-08T06:52:16.877Z,988.00
2023-05-08T06:53:16.855Z,1010.00
2023-05-08T06:54:16.853Z,1006.00
2023-05-08T06:55:16.818Z,1011.00
2023-05-08T06:56:16.877Z,991.00
2023-05-08T06:57:16.827Z,1011.00
2023-05-08T06:58:16.813Z,1011.00
2023-05-08T06:59:16.816Z,1015.00
2023-05-08T07:00:16.838Z,1024.00
2023-05-08T07:01:16.854Z,1027.00
2023-05-08T07:02:16.803Z,1036.00
2023-05-08T07:03:16.817Z,1053.00
2023-05-08T07:04:16.798Z,1055.00
2023-05-08T07:05:17.194Z,1078.00
2023-05-08T07:06:16.770Z,1083.00
2023-05-08T07:07:16.779Z,1104.00
2023-05-08T07:08:16.773Z,1107.00
2023-05-08T07:09:17.711Z,1133.00
2023-05-08T07:10:17.258Z,1129.00
2023-05-08T07:11:16.714Z,1129.00
2023-05-08T07:12:16.724Z,1129.00
2023-05-08T07:13:16.738Z,1140.00
2023-05-08T07:14:16.721Z,1150.00
2023-05-08T07:15:41.036Z,1131.00
2023-05-08T07:16:17.756Z,1132.00
2023-05-08T07:17:16.715Z,1135.00
2023-05-08T07:18:16.749Z,1146.00
2023-05-08T07:19:16.669Z,1158.00
2023-05-08T07:20:16.676Z,1182.00
2023-05-08T07:21:16.680Z,1198.00
2023-05-08T07:22:16.676Z,1205.00
2023-05-08T07:23:16.638Z,1208.00
2023-05-08T07:24:16.730Z,1199.00
2023-05-08T07:25:16.740Z,1199.00
2023-05-08T07:26:16.815Z,1206.00
2023-05-08T07:27:16.862Z,1214.00
2023-05-08T07:28:16.923Z,1212.00
2023-05-08T07:29:16.992Z,1213.00
2023-05-08T07:30:17.053Z,1218.00
2023-05-08T07:31:17.118Z,1207.00
2023-05-08T07:32:17.172Z,1225.00
2023-05-08T07:33:17.221Z,1233.00
2023-05-08T07:34:17.257Z,1250.00
2023-05-08T07:35:17.591Z,1133.00
2023-05-08T07:36:17.412Z,1086.00
2023-05-08T07:37:17.452Z,1036.00
2023-05-08T07:38:17.716Z,1070.00
2023-05-08T07:39:17.617Z,1070.00
2023-05-08T07:40:17.682Z,1126.00
2023-05-08T07:41:17.710Z,1164.00
2023-05-08T07:42:17.755Z,1204.00
2023-05-08T07:43:17.812Z,1230.00
2023-05-08T07:44:17.842Z,1264.00
2023-05-08T07:45:17.913Z,1263.00
2023-05-08T07:46:18.053Z,1291.00
2023-05-08T07:47:17.988Z,1307.00
2023-05-08T07:48:18.026Z,1313.00
2023-05-08T07:49:18.095Z,1301.00
2023-05-08T07:50:18.114Z,1309.00
2023-05-08T07:51:18.112Z,1297.00
2023-05-08T07:52:18.187Z,1315.00
2023-05-08T07:53:18.195Z,1301.00
2023-05-08T07:54:18.268Z,1314.00
2023-05-08T07:55:18.293Z,1287.00
2023-05-08T07:56:18.330Z,1289.00
2023-05-08T07:57:18.334Z,1293.00
2023-05-08T07:58:18.351Z,1297.00
2023-05-08T07:59:18.748Z,1295.00
2023-05-08T08:00:18.392Z,1332.00
2023-05-08T08:01:18.475Z,1330.00
2023-05-08T08:02:18.457Z,1339.00
2023-05-08T08:03:18.552Z,1343.00
2023-05-08T08:04:18.523Z,1348.00
2023-05-08T08:05:18.493Z,1361.00
2023-05-08T08:06:18.578Z,1361.00
2023-05-08T08:07:18.537Z,1359.00
2023-05-08T08:08:18.542Z,1341.00
2023-05-08T08:09:18.534Z,1325.00
2023-05-08T08:10:18.524Z,1330.00
2023-05-08T08:11:18.524Z,1325.00
2023-05-08T08:12:18.544Z,1348.00
2023-05-08T08:13:18.572Z,1347.00
2023-05-08T08:14:18.555Z,1348.00
2023-05-08T08:15:18.558Z,1340.00
2023-05-08T08:17:37.379Z,500.00
2023-05-08T08:18:37.244Z,500.00
2023-05-08T08:19:37.226Z,500.00
2023-05-08T08:20:37.241Z,500.00
2023-05-08T08:21:37.234Z,500.00
2023-05-08T08:22:37.248Z,500.00
2023-05-08T08:23:37.473Z,507.00
2023-05-08T08:24:37.214Z,518.00
2023-05-08T08:25:37.200Z,514.00
2023-05-08T08:26:37.193Z,507.00
2023-05-08T08:27:37.166Z,500.00
2023-05-08T08:28:37.173Z,500.00
2023-05-08T08:29:37.476Z,499.00
2023-05-08T08:30:37.152Z,500.00
2023-05-08T08:31:37.203Z,500.00
2023-05-08T08:32:37.217Z,502.00
2023-05-08T08:33:37.225Z,500.00
2023-05-08T08:34:37.138Z,502.00
2023-05-08T08:35:37.125Z,500.00
2023-05-08T08:36:37.112Z,500.00
2023-05-08T08:37:37.463Z,500.00
2023-05-08T08:38:37.125Z,503.00
2023-05-08T08:39:37.081Z,501.00
2023-05-08T08:40:37.076Z,502.00
2023-05-08T08:41:37.071Z,500.00
2023-05-08T08:42:37.507Z,500.00
2023-05-08T08:43:37.078Z,515.00
2023-05-08T08:44:39.228Z,506.00
2023-05-08T08:45:37.071Z,506.00
2023-05-08T08:46:37.104Z,507.00
2023-05-08T08:47:37.133Z,510.00
2023-05-08T08:48:37.481Z,518.00
2023-05-08T08:49:37.106Z,543.00
2023-05-08T08:50:37.017Z,553.00
2023-05-08T08:51:37.035Z,557.00
2023-05-08T08:52:36.996Z,559.00
2023-05-08T08:53:37.010Z,563.00
2023-05-08T08:54:37.056Z,559.00
2023-05-08T08:55:37.011Z,569.00
2023-05-08T08:56:37.031Z,575.00
2023-05-08T08:57:37.035Z,574.00
2023-05-08T08:58:38.809Z,581.00
2023-05-08T08:59:36.997Z,581.00
2023-05-08T09:00:36.978Z,584.00
2023-05-08T09:01:36.987Z,587.00
2023-05-08T09:02:37.145Z,593.00
2023-05-08T09:03:37.155Z,600.00
2023-05-08T09:04:37.112Z,603.00
2023-05-08T09:05:37.277Z,596.00
2023-05-08T09:06:37.242Z,591.00
2023-05-08T09:07:37.300Z,593.00
2023-05-08T09:08:37.377Z,600.00
2023-05-08T09:09:37.418Z,600.00
2023-05-08T09:10:37.473Z,607.00
2023-05-08T09:11:37.540Z,614.00
2023-05-08T09:12:37.651Z,615.00
2023-05-08T09:13:37.699Z,624.00
2023-05-08T09:14:37.660Z,623.00
2023-05-08T09:15:37.703Z,639.00
2023-05-08T09:16:37.800Z,633.00
2023-05-08T09:17:37.834Z,627.00
2023-05-08T09:18:37.848Z,630.00
2023-05-08T09:19:37.902Z,635.00
2023-05-08T09:20:37.905Z,641.00
2023-05-08T09:21:38.051Z,661.00
2023-05-08T09:22:37.973Z,656.00
2023-05-08T09:23:37.993Z,642.00
2023-05-08T09:24:37.987Z,646.00
2023-05-08T09:25:38.054Z,651.00
2023-05-08T09:26:38.036Z,660.00
2023-05-08T09:27:38.056Z,691.00
2023-05-08T09:28:38.066Z,741.00
2023-05-08T09:29:38.035Z,712.00
2023-05-08T09:30:38.576Z,723.00
2023-05-08T09:31:38.079Z,790.00
2023-05-08T09:32:38.165Z,689.00
2023-05-08T09:33:38.097Z,636.00
2023-05-08T09:34:38.123Z,575.00
2023-05-08T09:35:38.143Z,535.00
2023-05-08T09:36:38.235Z,510.00
2023-05-08T09:37:38.499Z,500.00
2023-05-08T09:38:38.292Z,500.00
2023-05-08T09:39:38.918Z,505.00
2023-05-08T09:40:38.527Z,502.00
2023-05-08T09:41:38.461Z,500.00
2023-05-08T09:42:38.590Z,504.00
2023-05-08T09:43:38.575Z,501.00
2023-05-08T09:44:38.625Z,497.00
2023-05-08T09:45:38.730Z,500.00
2023-05-08T09:46:39.036Z,500.00
2023-05-08T09:47:38.843Z,500.00
2023-05-08T09:48:38.841Z,500.00
2023-05-08T09:49:38.856Z,501.00
2023-05-08T09:50:39.738Z,520.00
2023-05-08T09:51:38.943Z,516.00
2023-05-08T09:52:38.955Z,527.00
2023-05-08T09:53:39.106Z,552.00
2023-05-08T09:54:39.066Z,567.00
2023-05-08T09:55:39.515Z,582.00
2023-05-08T09:56:39.174Z,606.00
2023-05-08T09:57:39.225Z,633.00
2023-05-08T09:58:39.306Z,650.00
2023-05-08T09:59:39.301Z,659.00
2023-05-08T10:00:39.344Z,658.00
2023-05-08T10:01:39.453Z,680.00
2023-05-08T10:02:39.501Z,716.00
2023-05-08T10:03:39.483Z,746.00
2023-05-08T10:04:39.635Z,779.00
2023-05-08T10:05:40.029Z,814.00
2023-05-08T10:06:39.608Z,842.00
2023-05-08T10:07:39.627Z,892.00
2023-05-08T10:08:39.638Z,912.00
2023-05-08T10:09:50.297Z,929.00
2023-05-08T10:10:40.700Z,930.00
2023-05-08T10:11:39.729Z,935.00
2023-05-08T10:12:39.677Z,943.00
2023-05-08T10:13:39.652Z,985.00
2023-05-08T10:14:39.638Z,1071.00
2023-05-08T10:15:39.631Z,1101.00
2023-05-08T10:16:39.705Z,1155.00
2023-05-08T10:17:39.706Z,1132.00
2023-05-08T10:18:39.647Z,1053.00
2023-05-08T10:19:39.588Z,958.00
2023-05-08T10:20:39.596Z,806.00
2023-05-08T10:21:39.631Z,692.00
2023-05-08T10:22:39.605Z,680.00
2023-05-08T10:23:39.571Z,653.00
2023-05-08T10:24:39.590Z,651.00
2023-05-08T10:25:39.653Z,616.00
2023-05-08T10:26:40.892Z,591.00
2023-05-08T10:27:39.548Z,586.00
2023-05-08T10:28:39.566Z,577.00
2023-05-08T10:29:39.542Z,597.00
2023-05-08T10:30:39.532Z,585.00
2023-05-08T10:31:39.583Z,610.00
2023-05-08T10:32:39.559Z,613.00
2023-05-08T10:33:39.492Z,559.00
2023-05-08T10:34:39.551Z,555.00
2023-05-08T10:35:39.525Z,580.00
2023-05-08T10:36:39.515Z,598.00
2023-05-08T10:37:39.501Z,610.00
2023-05-08T10:38:39.472Z,620.00
2023-05-08T10:39:39.501Z,639.00
2023-05-08T10:40:39.504Z,656.00
2023-05-08T10:41:39.569Z,683.00
2023-05-08T10:42:39.538Z,665.00
2023-05-08T10:43:39.460Z,660.00
2023-05-08T10:44:39.466Z,684.00
2023-05-08T10:45:39.539Z,690.00
2023-05-08T10:46:39.485Z,709.00
2023-05-08T10:47:39.471Z,731.00
2023-05-08T10:48:39.454Z,774.00
2023-05-08T10:49:39.454Z,783.00
2023-05-08T10:50:39.468Z,791.00
2023-05-08T10:51:39.463Z,866.00
2023-05-08T10:52:39.489Z,865.00
2023-05-08T10:53:39.428Z,844.00
2023-05-08T10:54:39.400Z,862.00
2023-05-08T10:55:39.402Z,798.00
2023-05-08T10:56:39.345Z,759.00
2023-05-08T10:57:39.427Z,752.00
2023-05-08T10:58:39.426Z,737.00
2023-05-08T10:59:39.371Z,731.00
2023-05-08T11:00:39.365Z,734.00
2023-05-08T11:01:39.353Z,719.00
2023-05-08T11:02:39.414Z,760.00
2023-05-08T11:03:39.451Z,787.00
2023-05-08T11:04:39.468Z,797.00
2023-05-08T11:05:39.414Z,783.00
2023-05-08T11:06:39.486Z,769.00
2023-05-08T11:07:39.543Z,794.00
2023-05-08T11:08:39.607Z,792.00
2023-05-08T11:09:39.678Z,813.00
2023-05-08T11:10:39.745Z,832.00
2023-05-08T11:11:39.803Z,810.00
2023-05-08T11:12:39.886Z,804.00
2023-05-08T11:13:39.925Z,814.00
2023-05-08T11:14:39.944Z,808.00
2023-05-08T11:15:39.988Z,792.00
2023-05-08T11:16:40.270Z,756.00
2023-05-08T11:17:40.176Z,753.00
2023-05-08T11:18:49.200Z,759.00
2023-05-08T11:19:41.186Z,759.00
2023-05-08T11:20:40.299Z,765.00
2023-05-08T11:21:40.190Z,776.00
2023-05-08T11:22:40.183Z,831.00
2023-05-08T11:23:40.542Z,886.00
2023-05-08T11:24:40.200Z,846.00
2023-05-08T11:25:40.136Z,831.00
2023-05-08T11:26:40.138Z,776.00
2023-05-08T11:27:40.106Z,759.00
2023-05-08T11:28:40.215Z,707.00
2023-05-08T11:29:40.563Z,674.00
2023-05-08T11:30:40.291Z,654.00
2023-05-08T11:31:40.382Z,640.00
2023-05-08T11:32:40.435Z,628.00
2023-05-08T11:33:40.441Z,625.00
2023-05-08T11:34:40.469Z,619.00
2023-05-08T11:35:40.549Z,610.00
2023-05-08T11:36:40.514Z,602.00
2023-05-08T11:37:40.600Z,594.00
2023-05-08T11:38:40.613Z,595.00
2023-05-08T11:39:40.660Z,578.00
2023-05-08T11:40:40.707Z,568.00
2023-05-08T11:41:40.782Z,573.00
2023-05-08T11:42:40.817Z,559.00
2023-05-08T11:43:40.899Z,559.00
2023-05-08T11:44:40.950Z,547.00
2023-05-08T11:45:41.064Z,526.00
2023-05-08T11:46:41.067Z,512.00
2023-05-08T11:47:41.140Z,507.00
2023-05-08T11:48:41.090Z,503.00
2023-05-08T11:49:41.146Z,501.00
2023-05-08T11:50:41.192Z,500.00
2023-05-08T11:51:41.242Z,502.00
2023-05-08T11:52:41.287Z,497.00
2023-05-08T11:53:41.372Z,500.00
2023-05-08T11:54:41.317Z,500.00
2023-05-08T11:55:41.325Z,503.00
2023-05-08T11:56:41.384Z,506.00
2023-05-08T11:57:41.397Z,505.00
2023-05-08T11:58:41.400Z,506.00
2023-05-08T11:59:41.398Z,509.00
2023-05-08T12:00:41.540Z,504.00
2023-05-08T12:01:41.432Z,513.00
2023-05-08T12:02:41.663Z,519.00
2023-05-08T12:03:41.655Z,540.00
2023-05-08T12:04:41.618Z,550.00
2023-05-08T12:05:41.654Z,547.00
2023-05-08T12:06:41.707Z,556.00
2023-05-08T12:07:41.760Z,559.00
2023-05-08T12:08:41.842Z,577.00
2023-05-08T12:09:41.878Z,588.00
2023-05-08T12:10:41.947Z,602.00
2023-05-08T12:11:41.990Z,616.00
2023-05-08T12:12:42.160Z,625.00
2023-05-08T12:13:42.062Z,653.00
2023-05-08T12:14:42.109Z,659.00
2023-05-08T12:15:42.128Z,665.00
2023-05-08T12:16:42.127Z,699.00
2023-05-08T12:17:42.223Z,720.00
2023-05-08T12:18:42.241Z,751.00
2023-05-08T12:19:42.252Z,773.00
2023-05-08T12:20:42.309Z,811.00
2023-05-08T12:21:42.286Z,825.00
2023-05-08T12:22:42.330Z,829.00
2023-05-08T12:23:42.378Z,850.00
2023-05-08T12:24:42.370Z,894.00
2023-05-08T12:25:42.429Z,925.00